createdAt,value
2023-09-06T00:01:19.421Z,18.32
2023-09-06T00:03:46.129Z,18.31
2023-09-06T00:06:12.744Z,18.30
2023-09-06T00:08:39.349Z,18.25
2023-09-06T00:11:06.691Z,18.27
2023-09-06T00:13:34.571Z,18.28
2023-09-06T00:16:02.169Z,18.28
2023-09-06T00:18:28.992Z,18.28
2023-09-06T00:20:58.544Z,18.26
2023-09-06T00:23:26.388Z,18.24
2023-09-06T00:25:56.736Z,18.20
2023-09-06T00:28:25.741Z,18.14
2023-09-06T00:30:58.467Z,18.10
2023-09-06T00:33:31.729Z,18.08
2023-09-06T00:35:59.150Z,18.05
2023-09-06T00:38:26.321Z,18.05
2023-09-06T00:40:54.895Z,18.02
2023-09-06T00:43:21.474Z,18.01
2023-09-06T00:45:52.210Z,17.95
2023-09-06T00:48:22.824Z,17.92
2023-09-06T00:50:54.097Z,17.88
2023-09-06T00:53:23.000Z,17.84
2023-09-06T00:55:52.423Z,17.81
2023-09-06T00:58:20.450Z,17.77
2023-09-06T01:00:48.167Z,17.74
2023-09-06T01:03:16.344Z,17.69
2023-09-06T01:05:49.225Z,17.68
2023-09-06T01:08:29.773Z,17.65
2023-09-06T01:11:22.733Z,17.65
2023-09-06T01:13:59.841Z,17.60
2023-09-06T01:16:33.831Z,17.54
2023-09-06T01:19:00.954Z,17.51
2023-09-06T01:21:36.158Z,17.46
2023-09-06T01:24:04.590Z,17.44
2023-09-06T01:26:33.297Z,17.41
2023-09-06T01:29:00.046Z,17.37
2023-09-06T01:31:28.796Z,17.36
2023-09-06T01:33:55.744Z,17.36
2023-09-06T01:36:22.416Z,17.37
2023-09-06T01:38:49.023Z,17.39
2023-09-06T01:41:15.542Z,17.42
2023-09-06T01:43:42.117Z,17.42
2023-09-06T01:46:08.734Z,17.40
2023-09-06T01:48:35.337Z,17.40
2023-09-06T01:51:01.927Z,17.41
2023-09-06T01:53:30.289Z,17.42
2023-09-06T01:55:56.869Z,17.41
2023-09-06T01:58:23.398Z,17.38
2023-09-06T02:00:49.964Z,17.37
2023-09-06T02:03:18.069Z,17.32
2023-09-06T02:05:44.895Z,17.28
2023-09-06T02:08:12.426Z,17.25
2023-09-06T02:10:39.102Z,17.20
2023-09-06T02:13:05.757Z,17.08
2023-09-06T02:15:32.279Z,17.01
2023-09-06T02:17:58.837Z,16.92
2023-09-06T02:20:26.758Z,16.88
2023-09-06T02:22:57.554Z,16.93
2023-09-06T02:25:31.933Z,16.93
2023-09-06T02:27:59.273Z,16.93
2023-09-06T02:30:26.256Z,16.91
2023-09-06T02:32:55.704Z,16.85
2023-09-06T02:35:22.266Z,16.84
2023-09-06T02:37:48.923Z,16.82
2023-09-06T02:40:18.756Z,16.79
2023-09-06T02:42:45.491Z,16.76
2023-09-06T02:45:13.043Z,16.75
2023-09-06T02:47:51.730Z,16.73
2023-09-06T02:50:23.916Z,16.73
2023-09-06T02:52:54.764Z,16.69
2023-09-06T02:55:22.241Z,16.66
2023-09-06T02:57:50.626Z,16.62
2023-09-06T03:00:21.003Z,16.61
2023-09-06T03:02:48.427Z,16.59
2023-09-06T03:05:18.870Z,16.60
2023-09-06T03:07:49.327Z,16.57
2023-09-06T03:10:21.149Z,16.56
2023-09-06T03:12:49.315Z,16.56
2023-09-06T03:15:16.720Z,16.54
2023-09-06T03:17:48.050Z,16.52
2023-09-06T03:20:34.214Z,16.53
2023-09-06T03:23:18.484Z,16.50
2023-09-06T03:25:49.604Z,16.45
2023-09-06T03:28:19.921Z,16.45
2023-09-06T03:30:46.973Z,16.40
2023-09-06T03:33:13.638Z,16.39
2023-09-06T03:35:40.281Z,16.35
2023-09-06T03:38:09.949Z,16.34
2023-09-06T03:40:37.280Z,16.32
2023-09-06T03:43:18.396Z,16.29
2023-09-06T03:45:53.014Z,16.27
2023-09-06T03:48:22.433Z,16.24
2023-09-06T03:50:53.256Z,16.22
2023-09-06T03:53:19.904Z,16.21
2023-09-06T03:55:50.797Z,16.20
2023-09-06T03:58:17.364Z,16.20
2023-09-06T04:00:45.845Z,16.21
2023-09-06T04:03:16.242Z,16.22
2023-09-06T04:05:45.218Z,16.21
2023-09-06T04:08:12.617Z,16.19
2023-09-06T04:10:40.370Z,16.19
2023-09-06T04:13:08.754Z,16.19
2023-09-06T04:15:36.343Z,16.17
2023-09-06T04:18:07.696Z,16.13
2023-09-06T04:20:39.846Z,16.06
2023-09-06T04:23:08.955Z,16.01
2023-09-06T04:25:44.470Z,15.97
2023-09-06T04:28:12.758Z,15.94
2023-09-06T04:30:42.050Z,15.90
2023-09-06T04:33:13.874Z,15.88
2023-09-06T04:35:48.438Z,15.84
2023-09-06T04:38:21.781Z,15.82
2023-09-06T04:40:48.605Z,15.81
2023-09-06T04:43:19.291Z,15.81
2023-09-06T04:45:48.389Z,15.81
2023-09-06T04:48:25.152Z,15.79
2023-09-06T04:50:51.881Z,15.78
2023-09-06T04:53:19.480Z,15.77
2023-09-06T04:55:50.298Z,15.77
2023-09-06T04:58:17.086Z,15.77
2023-09-06T05:00:46.055Z,15.76
2023-09-06T05:03:13.066Z,15.79
2023-09-06T05:05:41.696Z,15.78
2023-09-06T05:08:09.472Z,15.78
2023-09-06T05:10:36.856Z,15.78
2023-09-06T05:13:04.122Z,15.78
2023-09-06T05:15:30.696Z,15.79
2023-09-06T05:17:57.251Z,15.80
2023-09-06T05:20:42.239Z,15.82
2023-09-06T05:23:13.639Z,15.85
2023-09-06T05:25:41.850Z,15.86
2023-09-06T05:28:11.175Z,15.85
2023-09-06T05:30:42.093Z,15.87
2023-09-06T05:33:10.144Z,15.91
2023-09-06T05:35:37.453Z,15.94
2023-09-06T05:38:07.334Z,15.96
2023-09-06T05:40:35.746Z,15.98
2023-09-06T05:43:02.728Z,15.99
2023-09-06T05:45:29.296Z,16.01
2023-09-06T05:47:55.939Z,16.03
2023-09-06T05:50:22.615Z,16.06
2023-09-06T05:52:49.326Z,16.08
2023-09-06T05:55:16.107Z,16.13
2023-09-06T05:57:43.444Z,16.17
2023-09-06T06:00:14.368Z,16.19
2023-09-06T06:02:41.544Z,16.25
2023-09-06T06:05:08.658Z,16.30
2023-09-06T06:07:35.140Z,16.33
2023-09-06T06:10:01.789Z,16.40
2023-09-06T06:12:28.404Z,16.45
2023-09-06T06:14:55.030Z,16.51
2023-09-06T06:17:21.878Z,16.53
2023-09-06T06:19:49.467Z,16.56
2023-09-06T06:22:16.074Z,16.58
2023-09-06T06:24:46.238Z,16.63
2023-09-06T06:27:13.332Z,16.69
2023-09-06T06:29:40.315Z,16.74
2023-09-06T06:32:08.308Z,16.77
2023-09-06T06:34:40.064Z,16.83
2023-09-06T06:37:07.239Z,16.93
2023-09-06T06:39:34.061Z,16.98
2023-09-06T06:42:00.749Z,17.01
2023-09-06T06:44:27.236Z,17.04
2023-09-06T06:46:53.775Z,17.08
2023-09-06T06:49:20.993Z,17.11
2023-09-06T06:51:47.619Z,17.12
2023-09-06T06:54:16.777Z,17.17
2023-09-06T06:56:43.340Z,17.26
2023-09-06T06:59:10.286Z,17.32
2023-09-06T07:01:37.299Z,17.39
2023-09-06T07:04:07.504Z,17.51
2023-09-06T07:06:34.335Z,17.67
2023-09-06T07:09:04.604Z,17.83
2023-09-06T07:11:32.507Z,17.95
2023-09-06T07:13:59.247Z,18.06
2023-09-06T07:16:27.638Z,18.15
2023-09-06T07:18:56.066Z,18.24
2023-09-06T07:21:22.569Z,18.33
2023-09-06T07:23:49.225Z,18.45
2023-09-06T07:26:16.163Z,18.53
2023-09-06T07:28:45.171Z,18.65
2023-09-06T07:31:12.952Z,18.74
2023-09-06T07:33:42.597Z,18.78
2023-09-06T07:36:09.192Z,18.85
2023-09-06T07:38:35.917Z,18.91
2023-09-06T07:41:07.716Z,19.00
2023-09-06T07:43:36.342Z,19.13
2023-09-06T07:46:04.434Z,19.24
2023-09-06T07:48:32.525Z,19.30
2023-09-06T07:51:00.522Z,19.39
2023-09-06T07:53:27.951Z,19.42
2023-09-06T07:55:56.400Z,19.45
2023-09-06T07:58:23.765Z,19.48
2023-09-06T08:00:59.342Z,19.54
2023-09-06T08:03:34.756Z,19.61
2023-09-06T08:06:01.600Z,19.68
2023-09-06T08:08:28.451Z,19.81
2023-09-06T08:10:55.145Z,19.92
2023-09-06T08:13:21.654Z,19.99
2023-09-06T08:15:48.312Z,19.97
2023-09-06T08:18:14.960Z,19.95
2023-09-06T08:20:41.657Z,20.02
2023-09-06T08:23:08.243Z,20.11
2023-09-06T08:25:35.112Z,20.08
2023-09-06T08:28:01.664Z,20.12
2023-09-06T08:30:28.680Z,20.30
2023-09-06T08:32:56.430Z,20.46
2023-09-06T08:35:24.448Z,20.54
2023-09-06T08:37:51.676Z,20.56
2023-09-06T08:40:19.857Z,20.62
2023-09-06T08:42:46.534Z,20.68
2023-09-06T08:45:13.218Z,20.65
2023-09-06T08:47:40.970Z,20.70
2023-09-06T08:50:08.365Z,20.82
2023-09-06T08:52:35.910Z,20.91
2023-09-06T08:55:02.465Z,21.00
2023-09-06T08:57:29.112Z,21.11
2023-09-06T08:59:55.819Z,21.18
2023-09-06T09:02:22.339Z,21.31
2023-09-06T09:04:50.403Z,21.43
2023-09-06T09:07:19.659Z,21.53
2023-09-06T09:10:08.516Z,21.59
2023-09-06T09:12:38.617Z,21.63
2023-09-06T09:15:21.250Z,21.75
2023-09-06T09:17:59.927Z,21.83
2023-09-06T09:20:28.213Z,21.81
2023-09-06T09:23:02.364Z,21.79
2023-09-06T09:25:29.214Z,21.92
2023-09-06T09:27:58.603Z,21.93
2023-09-06T09:30:27.863Z,22.00
2023-09-06T09:32:59.972Z,22.16
2023-09-06T09:35:27.292Z,22.28
2023-09-06T09:37:53.798Z,22.38
2023-09-06T09:40:22.291Z,22.42
2023-09-06T09:42:56.735Z,22.52
2023-09-06T09:45:25.993Z,22.53
2023-09-06T09:47:54.464Z,22.59
2023-09-06T09:50:34.382Z,22.67
2023-09-06T09:53:15.007Z,22.66
2023-09-06T09:55:48.591Z,22.69
2023-09-06T09:58:16.996Z,22.73
2023-09-06T10:00:44.082Z,22.81
2023-09-06T10:03:11.721Z,22.91
2023-09-06T10:05:39.057Z,22.98
2023-09-06T10:08:08.943Z,23.04
2023-09-06T10:10:38.405Z,23.12
2023-09-06T10:13:08.990Z,23.20
2023-09-06T10:15:36.776Z,23.33
2023-09-06T10:18:05.186Z,23.42
2023-09-06T10:20:33.483Z,23.50
2023-09-06T10:23:01.464Z,23.54
2023-09-06T10:25:28.095Z,23.61
2023-09-06T10:27:56.427Z,23.66
2023-09-06T10:30:49.691Z,23.85
2023-09-06T10:33:35.119Z,24.01
2023-09-06T10:36:08.625Z,24.07
2023-09-06T10:38:59.305Z,24.21
2023-09-06T10:41:28.734Z,24.31
2023-09-06T10:44:02.293Z,24.37
2023-09-06T10:46:29.892Z,24.39
2023-09-06T10:49:17.634Z,24.52
2023-09-06T10:52:05.715Z,24.65
2023-09-06T10:54:41.461Z,24.74
2023-09-06T10:57:09.789Z,24.76
2023-09-06T10:59:40.049Z,24.85
2023-09-06T11:02:11.036Z,24.96
2023-09-06T11:04:37.964Z,25.09
2023-09-06T11:07:10.871Z,25.18
2023-09-06T11:09:51.825Z,25.23
2023-09-06T11:12:18.811Z,25.32
2023-09-06T11:14:49.041Z,25.44
2023-09-06T11:17:25.001Z,25.57
2023-09-06T11:19:51.623Z,25.68
2023-09-06T11:22:18.403Z,25.84
2023-09-06T11:24:45.053Z,26.06
2023-09-06T11:27:18.689Z,26.15
2023-09-06T11:29:45.139Z,26.22
2023-09-06T11:32:16.960Z,26.34
2023-09-06T11:34:46.792Z,26.47
2023-09-06T11:37:16.770Z,26.63
2023-09-06T11:39:45.340Z,26.69
2023-09-06T11:42:15.780Z,26.85
2023-09-06T11:44:54.447Z,26.99
2023-09-06T11:47:24.670Z,27.09
2023-09-06T11:49:51.569Z,27.15
2023-09-06T11:52:20.336Z,27.27
2023-09-06T11:54:51.226Z,27.36
2023-09-06T11:57:22.500Z,27.44
2023-09-06T11:59:53.816Z,27.43
2023-09-06T12:02:22.278Z,27.46
2023-09-06T12:04:54.082Z,27.60
2023-09-06T12:07:24.577Z,27.68
2023-09-06T12:09:52.028Z,27.73
2023-09-06T12:12:18.614Z,27.77
2023-09-06T12:14:45.586Z,27.84
2023-09-06T12:17:12.627Z,27.96
2023-09-06T12:19:39.327Z,28.13
2023-09-06T12:22:06.548Z,28.16
2023-09-06T12:24:35.018Z,28.19
2023-09-06T12:27:02.081Z,28.28
2023-09-06T12:29:28.633Z,28.38
2023-09-06T12:31:55.148Z,28.43
2023-09-06T12:34:22.794Z,28.38
2023-09-06T12:36:49.374Z,28.42
2023-09-06T12:39:15.833Z,28.61
2023-09-06T12:41:43.474Z,28.81
2023-09-06T12:44:10.051Z,28.95
2023-09-06T12:46:36.614Z,29.07
2023-09-06T12:49:05.448Z,29.23
2023-09-06T12:51:31.965Z,29.24
2023-09-06T12:53:58.590Z,29.29
2023-09-06T12:56:25.071Z,29.32
2023-09-06T12:58:51.579Z,29.29
2023-09-06T13:01:18.181Z,29.32
2023-09-06T13:03:47.738Z,29.45
2023-09-06T13:06:14.367Z,29.58
2023-09-06T13:08:42.834Z,29.69
2023-09-06T13:11:09.568Z,29.69
2023-09-06T13:13:36.884Z,29.70
2023-09-06T13:16:07.319Z,29.72
2023-09-06T13:18:34.356Z,29.87
2023-09-06T13:21:01.420Z,29.92
2023-09-06T13:23:27.923Z,30.04
2023-09-06T13:25:54.432Z,30.10
2023-09-06T13:28:20.921Z,30.06
2023-09-06T13:30:47.447Z,30.15
2023-09-06T13:33:14.049Z,30.31
2023-09-06T13:35:40.598Z,30.37
2023-09-06T13:38:07.204Z,30.44
2023-09-06T13:40:33.770Z,30.39
2023-09-06T13:43:00.498Z,30.32
2023-09-06T13:45:28.688Z,30.55
2023-09-06T13:47:57.077Z,30.76
2023-09-06T13:50:23.952Z,30.83
2023-09-06T13:52:50.620Z,30.78
2023-09-06T13:55:17.343Z,30.84
2023-09-06T13:57:43.897Z,30.83
2023-09-06T14:00:12.689Z,30.81
2023-09-06T14:02:39.466Z,30.93
2023-09-06T14:05:06.480Z,31.05
2023-09-06T14:07:33.149Z,31.13
2023-09-06T14:09:59.821Z,31.06
2023-09-06T14:12:27.941Z,31.09
2023-09-06T14:14:57.646Z,31.24
2023-09-06T14:17:24.269Z,31.46
2023-09-06T14:19:51.321Z,31.51
2023-09-06T14:22:17.792Z,31.54
2023-09-06T14:24:44.401Z,31.48
2023-09-06T14:27:10.916Z,31.50
2023-09-06T14:29:37.394Z,31.51
2023-09-06T14:32:04.234Z,31.63
2023-09-06T14:34:30.789Z,31.69
2023-09-06T14:36:57.383Z,31.70
2023-09-06T14:39:24.512Z,31.56
2023-09-06T14:41:51.468Z,31.58
2023-09-06T14:44:18.696Z,31.65
2023-09-06T14:46:45.525Z,31.71
2023-09-06T14:49:13.408Z,31.69
2023-09-06T14:51:40.246Z,31.72
2023-09-06T14:54:07.716Z,31.74
2023-09-06T14:56:37.524Z,31.75
2023-09-06T14:59:05.005Z,31.70
2023-09-06T15:01:31.642Z,31.71
2023-09-06T15:03:58.610Z,31.71
2023-09-06T15:06:25.227Z,31.76
2023-09-06T15:08:57.330Z,31.66
2023-09-06T15:11:24.199Z,31.42
2023-09-06T15:13:50.659Z,31.38
2023-09-06T15:16:17.268Z,31.46
2023-09-06T15:18:46.006Z,31.45
2023-09-06T15:21:12.650Z,31.42
2023-09-06T15:23:39.176Z,31.42
2023-09-06T15:26:07.402Z,31.43
2023-09-06T15:28:33.997Z,31.43
2023-09-06T15:31:00.766Z,31.45
2023-09-06T15:33:27.461Z,31.42
2023-09-06T15:35:55.730Z,31.14
2023-09-06T15:38:22.586Z,31.07
2023-09-06T15:40:49.854Z,30.98
2023-09-06T15:43:16.421Z,31.04
2023-09-06T15:45:43.354Z,31.03
2023-09-06T15:48:10.019Z,31.04
2023-09-06T15:50:36.787Z,31.09
2023-09-06T15:53:03.553Z,31.08
2023-09-06T15:55:30.149Z,31.00
2023-09-06T15:57:57.931Z,30.95
2023-09-06T16:00:32.539Z,30.96
2023-09-06T16:03:00.854Z,30.92
2023-09-06T16:05:27.865Z,30.82
2023-09-06T16:07:57.494Z,30.76
2023-09-06T16:10:27.809Z,30.70
2023-09-06T16:12:54.597Z,30.62
2023-09-06T16:15:23.676Z,30.54
2023-09-06T16:17:51.155Z,30.49
2023-09-06T16:20:17.823Z,30.47
2023-09-06T16:22:44.394Z,30.39
2023-09-06T16:25:11.719Z,30.37
2023-09-06T16:27:38.390Z,30.33
2023-09-06T16:30:07.255Z,30.24
2023-09-06T16:32:34.214Z,30.12
2023-09-06T16:35:08.706Z,29.98
2023-09-06T16:37:39.372Z,29.85
2023-09-06T16:40:11.383Z,29.80
2023-09-06T16:42:38.438Z,29.69
2023-09-06T16:45:07.560Z,29.62
2023-09-06T16:47:34.536Z,29.53
2023-09-06T16:50:01.886Z,29.45
2023-09-06T16:52:28.514Z,29.33
2023-09-06T16:54:56.881Z,29.23
2023-09-06T16:57:25.578Z,29.14
2023-09-06T16:59:52.147Z,29.08
2023-09-06T17:02:21.135Z,29.02
2023-09-06T17:04:47.994Z,28.99
2023-09-06T17:07:14.812Z,28.87
2023-09-06T17:09:41.282Z,28.77
2023-09-06T17:12:08.157Z,28.68
2023-09-06T17:14:34.668Z,28.59
2023-09-06T17:17:01.271Z,28.45
2023-09-06T17:19:27.868Z,28.32
2023-09-06T17:21:54.383Z,28.21
2023-09-06T17:24:22.022Z,28.19
2023-09-06T17:26:49.451Z,28.12
2023-09-06T17:29:16.144Z,28.02
2023-09-06T17:31:43.607Z,27.97
2023-09-06T17:34:13.180Z,27.91
2023-09-06T17:36:40.568Z,27.84
2023-09-06T17:39:09.309Z,27.75
2023-09-06T17:41:37.106Z,27.60
2023-09-06T17:44:07.020Z,27.51
2023-09-06T17:46:37.156Z,27.40
2023-09-06T17:49:09.916Z,27.32
2023-09-06T17:51:37.733Z,27.21
2023-09-06T17:54:04.550Z,27.13
2023-09-06T17:56:31.630Z,27.01
2023-09-06T17:58:58.732Z,26.89
2023-09-06T18:01:25.696Z,26.74
2023-09-06T18:03:53.241Z,26.61
2023-09-06T18:06:25.563Z,26.55
2023-09-06T18:08:55.416Z,26.45
2023-09-06T18:11:23.006Z,26.32
2023-09-06T18:13:49.567Z,26.19
2023-09-06T18:16:17.791Z,26.10
2023-09-06T18:18:45.154Z,26.07
2023-09-06T18:21:15.044Z,26.00
2023-09-06T18:23:44.165Z,25.92
2023-09-06T18:26:11.615Z,25.86
2023-09-06T18:28:38.337Z,25.78
2023-09-06T18:31:05.299Z,25.69
2023-09-06T18:33:31.901Z,25.61
2023-09-06T18:35:58.846Z,25.51
2023-09-06T18:38:27.856Z,25.42
2023-09-06T18:40:57.043Z,25.33
2023-09-06T18:43:23.947Z,25.23
2023-09-06T18:45:51.835Z,25.17
2023-09-06T18:48:22.034Z,25.08
2023-09-06T18:50:50.692Z,24.99
2023-09-06T18:53:17.539Z,24.91
2023-09-06T18:55:47.505Z,24.84
2023-09-06T18:58:15.509Z,24.77
2023-09-06T19:00:42.754Z,24.73
2023-09-06T19:03:13.878Z,24.66
2023-09-06T19:05:42.479Z,24.59
2023-09-06T19:08:16.287Z,24.51
2023-09-06T19:10:52.389Z,24.44
2023-09-06T19:13:19.455Z,24.38
2023-09-06T19:15:48.799Z,24.33
2023-09-06T19:18:17.120Z,24.27
2023-09-06T19:20:43.727Z,24.24
2023-09-06T19:23:18.198Z,24.18
2023-09-06T19:25:52.681Z,24.14
2023-09-06T19:28:20.186Z,24.07
2023-09-06T19:30:49.391Z,23.95
2023-09-06T19:33:16.129Z,23.88
2023-09-06T19:35:44.301Z,23.85
2023-09-06T19:38:10.966Z,23.78
2023-09-06T19:40:40.461Z,23.73
2023-09-06T19:43:07.050Z,23.66
2023-09-06T19:45:33.615Z,23.58
2023-09-06T19:48:00.304Z,23.52
2023-09-06T19:50:28.543Z,23.44
2023-09-06T19:52:57.494Z,23.36
2023-09-06T19:55:24.070Z,23.29
2023-09-06T19:57:50.642Z,23.23
2023-09-06T20:00:17.309Z,23.15
2023-09-06T20:02:44.152Z,23.10
2023-09-06T20:05:11.292Z,23.05
2023-09-06T20:07:38.459Z,23.01
2023-09-06T20:10:05.556Z,22.96
2023-09-06T20:12:32.076Z,22.90
2023-09-06T20:14:58.652Z,22.85
2023-09-06T20:17:25.283Z,22.82
2023-09-06T20:19:52.509Z,22.75
2023-09-06T20:22:19.124Z,22.72
2023-09-06T20:24:45.651Z,22.66
2023-09-06T20:27:12.262Z,22.61
2023-09-06T20:29:40.122Z,22.54
2023-09-06T20:32:07.572Z,22.51
2023-09-06T20:34:34.634Z,22.46
2023-09-06T20:37:01.084Z,22.40
2023-09-06T20:39:27.543Z,22.38
2023-09-06T20:41:54.127Z,22.33
2023-09-06T20:44:21.238Z,22.29
2023-09-06T20:46:47.802Z,22.21
2023-09-06T20:49:17.496Z,22.18
2023-09-06T20:51:45.864Z,22.16
2023-09-06T20:54:12.553Z,22.12
2023-09-06T20:56:40.130Z,22.06
2023-09-06T20:59:06.726Z,22.01
2023-09-06T21:01:33.339Z,21.95
2023-09-06T21:03:59.971Z,21.93
2023-09-06T21:06:26.583Z,21.89
2023-09-06T21:08:54.044Z,21.85
2023-09-06T21:11:20.777Z,21.79
2023-09-06T21:13:47.298Z,21.73
2023-09-06T21:16:13.888Z,21.68
2023-09-06T21:18:40.617Z,21.64
2023-09-06T21:21:07.244Z,21.57
2023-09-06T21:23:35.527Z,21.46
2023-09-06T21:26:05.402Z,21.40
2023-09-06T21:28:32.255Z,21.37
2023-09-06T21:31:02.722Z,21.35
2023-09-06T21:33:29.470Z,21.34
2023-09-06T21:35:55.939Z,21.35
2023-09-06T21:38:22.406Z,21.30
2023-09-06T21:40:48.918Z,21.25
2023-09-06T21:43:19.248Z,21.19
2023-09-06T21:45:47.451Z,21.12
2023-09-06T21:48:14.383Z,21.07
2023-09-06T21:50:42.548Z,21.03
2023-09-06T21:53:10.103Z,21.01
2023-09-06T21:55:37.562Z,20.98
2023-09-06T21:58:10.576Z,20.95
2023-09-06T22:00:38.710Z,20.92
2023-09-06T22:03:05.500Z,20.86
2023-09-06T22:05:32.186Z,20.81
2023-09-06T22:07:58.868Z,20.75
2023-09-06T22:10:26.232Z,20.66
2023-09-06T22:12:52.884Z,20.58
2023-09-06T22:15:19.521Z,20.49
2023-09-06T22:17:46.123Z,20.46
2023-09-06T22:20:12.762Z,20.47
2023-09-06T22:22:39.366Z,20.42
2023-09-06T22:25:07.321Z,20.39
2023-09-06T22:27:34.588Z,20.35
2023-09-06T22:30:01.499Z,20.28
2023-09-06T22:32:28.098Z,20.23
2023-09-06T22:34:55.200Z,20.17
2023-09-06T22:37:21.804Z,20.14
2023-09-06T22:39:48.445Z,20.11
2023-09-06T22:42:15.099Z,20.06
2023-09-06T22:44:41.822Z,20.03
2023-09-06T22:47:09.547Z,19.96
2023-09-06T22:49:38.345Z,19.92
2023-09-06T22:52:07.302Z,19.90
2023-09-06T22:54:36.830Z,19.88
2023-09-06T22:57:04.526Z,19.82
2023-09-06T22:59:31.675Z,19.76
2023-09-06T23:01:58.793Z,19.69
2023-09-06T23:04:25.755Z,19.66
2023-09-06T23:06:52.947Z,19.63
2023-09-06T23:09:20.320Z,19.60
2023-09-06T23:11:51.291Z,19.58
2023-09-06T23:14:19.518Z,19.58
2023-09-06T23:16:49.959Z,19.55
2023-09-06T23:19:21.980Z,19.52
2023-09-06T23:21:52.776Z,19.50
2023-09-06T23:24:20.078Z,19.45
2023-09-06T23:26:47.634Z,19.39
2023-09-06T23:29:17.087Z,19.33
2023-09-06T23:31:54.169Z,19.23
2023-09-06T23:34:25.566Z,19.19
2023-09-06T23:36:52.917Z,19.13
2023-09-06T23:39:23.257Z,19.06
2023-09-06T23:41:57.844Z,18.99
2023-09-06T23:44:25.013Z,18.97
2023-09-06T23:46:51.870Z,18.96
2023-09-06T23:49:21.152Z,18.94
2023-09-06T23:51:48.262Z,18.95
2023-09-06T23:54:15.253Z,18.89
2023-09-06T23:56:41.973Z,18.78
2023-09-06T23:59:08.683Z,18.71
